Time;durP1;ratioP1;P1;durP2;ratioP2;P2;SDS_P1;SDS_P2;PMS_P1;PMS_P2;Temp;Humidity;BMP_temperature;BMP_pressure;BME280_temperature;BME280_humidity;BME280_pressure;Samples;Min_cycle;Max_cycle;Signal;HPM_P1;HPM_P2
2023/09/10 00:01:29;;;;;;;5.90;3.65;;;;;;;27.45;41.49;100578.56;5111407;28;20044;-69
2023/09/10 00:03:58;;;;;;;5.93;3.42;;;;;;;27.42;41.59;100579.81;5111331;28;20489;-70
2023/09/10 00:06:26;;;;;;;5.82;4.10;;;;;;;27.40;41.74;100581.88;5111243;28;20043;-70
2023/09/10 00:08:54;;;;;;;6.18;3.75;;;;;;;27.38;41.66;100584.81;5114852;28;20422;-69
2023/09/10 00:11:23;;;;;;;5.63;3.80;;;;;;;27.39;41.91;100589.22;5114586;28;20058;-70
2023/09/10 00:13:53;;;;;;;6.75;3.90;;;;;;;27.36;41.66;100581.41;5115023;28;20062;-69
2023/09/10 00:16:21;;;;;;;5.50;4.03;;;;;;;27.36;41.90;100581.41;5114869;28;20408;-69
2023/09/10 00:18:50;;;;;;;5.35;3.90;;;;;;;27.34;41.70;100578.03;5114822;28;20086;-70
2023/09/10 00:21:18;;;;;;;5.28;3.60;;;;;;;27.32;41.69;100580.13;5114670;28;20470;-70
2023/09/10 00:23:46;;;;;;;5.45;3.70;;;;;;;27.31;41.63;100577.53;5114675;28;20295;-70
2023/09/10 00:26:14;;;;;;;5.63;3.70;;;;;;;27.30;42.22;100576.69;5114481;28;20100;-70
2023/09/10 00:28:45;;;;;;;6.47;4.20;;;;;;;27.28;41.62;100578.78;5114587;28;20389;-70
2023/09/10 00:31:15;;;;;;;5.80;4.18;;;;;;;27.27;41.50;100570.78;5114458;28;20442;-70
2023/09/10 00:33:44;;;;;;;6.00;4.03;;;;;;;27.26;41.86;100578.13;5114383;28;20039;-70
2023/09/10 00:36:12;;;;;;;5.25;3.42;;;;;;;27.23;42.04;100578.53;5114698;28;20051;-70
2023/09/10 00:38:40;;;;;;;6.03;3.90;;;;;;;27.23;42.07;100575.78;5114360;28;20622;-70
2023/09/10 00:41:08;;;;;;;6.35;4.00;;;;;;;27.22;42.14;100574.09;5114543;28;20053;-69
2023/09/10 00:43:37;;;;;;;5.95;4.13;;;;;;;27.20;41.60;100575.31;5114472;28;20066;-70
2023/09/10 00:46:06;;;;;;;5.00;3.40;;;;;;;27.18;42.09;100580.97;5114193;28;20047;-70
2023/09/10 00:48:37;;;;;;;4.70;3.55;;;;;;;27.18;42.22;100583.72;5114141;28;20039;-70
2023/09/10 00:51:05;;;;;;;5.50;3.58;;;;;;;27.15;41.89;100578.66;5114330;28;20047;-70
2023/09/10 00:53:34;;;;;;;6.70;4.32;;;;;;;27.16;41.72;100585.81;5114516;28;20040;-70
2023/09/10 00:56:02;;;;;;;6.53;4.03;;;;;;;27.15;42.13;100578.66;5114209;28;20052;-70
2023/09/10 00:58:30;;;;;;;6.63;3.90;;;;;;;27.13;41.70;100586.22;5114507;28;20054;-70
2023/09/10 01:00:59;;;;;;;5.65;4.03;;;;;;;27.13;42.09;100588.09;5113897;28;20047;-70
2023/09/10 01:03:30;;;;;;;5.25;3.80;;;;;;;27.11;41.82;100582.78;5114077;28;20082;-70
2023/09/10 01:06:00;;;;;;;5.57;3.70;;;;;;;27.10;42.26;100575.63;5114040;28;20063;-70
2023/09/10 01:08:29;;;;;;;4.90;3.40;;;;;;;27.06;42.13;100577.91;5113931;28;20134;-70
2023/09/10 01:11:08;;;;;;;6.68;3.83;;;;;;;27.06;41.85;100580.63;5113633;28;20059;-70
2023/09/10 01:13:48;;;;;;;6.18;4.00;;;;;;;27.04;41.98;100573.66;5113535;28;20394;-70
2023/09/10 01:16:24;;;;;;;5.90;3.95;;;;;;;27.03;41.79;100578.28;5113836;28;20051;-70
2023/09/10 01:18:57;;;;;;;5.20;3.80;;;;;;;27.03;41.92;100574.72;5112528;28;20056;-70
2023/09/10 01:21:32;;;;;;;;;;;;;;;27.01;42.29;100574.00;5113926;28;20051;-70
2023/09/10 01:24:13;;;;;;;5.25;3.70;;;;;;;26.98;41.97;100575.22;5113403;28;19926;-70
2023/09/10 01:26:43;;;;;;;5.55;3.83;;;;;;;26.98;42.08;100577.13;5113663;28;20150;-70
2023/09/10 01:29:13;;;;;;;5.32;3.97;;;;;;;26.96;41.92;100574.59;5113371;28;20050;-70
2023/09/10 01:31:45;;;;;;;6.30;4.10;;;;;;;26.96;41.92;100568.25;5113293;28;20052;-70
2023/09/10 01:34:16;;;;;;;5.10;3.70;;;;;;;26.93;41.87;100579.59;5113331;28;20050;-69
2023/09/10 01:36:51;;;;;;;5.18;3.55;;;;;;;26.92;42.28;100575.97;5113018;28;20039;-69
2023/09/10 01:39:26;;;;;;;6.25;4.05;;;;;;;26.91;42.34;100576.19;5113431;28;20078;-70
2023/09/10 01:41:57;;;;;;;5.40;3.70;;;;;;;26.89;42.42;100572.78;5113033;28;20071;-69
2023/09/10 01:44:26;;;;;;;5.22;3.85;;;;;;;26.89;42.22;100576.38;5113260;28;20043;-69
2023/09/10 01:46:56;;;;;;;5.80;3.72;;;;;;;26.88;41.94;100576.56;5112716;28;20055;-68
2023/09/10 01:49:25;;;;;;;4.85;3.67;;;;;;;26.87;42.14;100575.72;5113169;28;20044;-70
2023/09/10 01:51:53;;;;;;;4.57;3.50;;;;;;;26.85;41.84;100566.88;5113342;28;20462;-69
2023/09/10 01:54:22;;;;;;;5.05;3.72;;;;;;;26.82;42.22;100568.06;5113144;28;20357;-69
2023/09/10 01:56:50;;;;;;;4.85;3.60;;;;;;;26.82;42.03;100573.53;5112802;28;20054;-69
2023/09/10 01:59:19;;;;;;;4.40;3.40;;;;;;;26.82;42.39;100579.03;5112747;28;20047;-69
2023/09/10 02:01:48;;;;;;;5.38;3.80;;;;;;;26.79;41.99;100570.34;5112628;28;20054;-69
2023/09/10 02:04:16;;;;;;;6.25;3.97;;;;;;;26.80;41.96;100580.25;5112942;28;20135;-69
2023/09/10 02:06:45;;;;;;;5.68;3.90;;;;;;;26.78;42.12;100585.91;5112862;28;20087;-69
2023/09/10 02:09:13;;;;;;;5.18;3.60;;;;;;;26.75;42.33;100578.09;5112798;28;20404;-69
2023/09/10 02:11:42;;;;;;;5.35;3.50;;;;;;;26.74;42.20;100579.16;5112314;28;20056;-69
2023/09/10 02:14:10;;;;;;;5.32;3.80;;;;;;;26.74;42.06;100586.50;5112559;28;20082;-69
2023/09/10 02:16:40;;;;;;;5.15;3.70;;;;;;;26.72;42.08;100581.19;5112565;28;20411;-69
2023/09/10 02:19:08;;;;;;;5.30;3.60;;;;;;;26.71;42.50;100584.97;5112595;28;20055;-69
2023/09/10 02:21:36;;;;;;;5.50;3.70;;;;;;;26.71;42.05;100575.91;5112400;28;20046;-69
2023/09/10 02:24:05;;;;;;;5.25;3.72;;;;;;;26.69;42.30;100578.84;5112462;28;20047;-69
2023/09/10 02:26:33;;;;;;;5.20;3.72;;;;;;;26.67;42.26;100580.94;5112194;28;20047;-69
2023/09/10 02:29:02;;;;;;;5.22;3.80;;;;;;;26.67;42.31;100580.09;5112287;28;20503;-69
2023/09/10 02:31:31;;;;;;;4.95;3.63;;;;;;;26.65;42.05;100577.53;5112279;28;20097;-69
2023/09/10 02:34:01;;;;;;;5.70;3.90;;;;;;;26.65;42.64;100587.63;5112230;28;20047;-69
2023/09/10 02:36:29;;;;;;;4.88;3.50;;;;;;;26.63;42.20;100584.22;5112314;28;20048;-69
2023/09/10 02:38:58;;;;;;;5.10;3.42;;;;;;;26.61;42.63;100584.41;5111935;28;20055;-69
2023/09/10 02:41:26;;;;;;;5.43;3.60;;;;;;;26.60;42.66;100579.97;5112018;28;20086;-69
2023/09/10 02:43:54;;;;;;;4.82;3.40;;;;;;;26.59;42.46;100577.44;5112238;28;20052;-69
2023/09/10 02:46:23;;;;;;;5.45;3.70;;;;;;;26.57;42.48;100580.38;5112239;28;20126;-69
2023/09/10 02:48:52;;;;;;;5.22;4.00;;;;;;;26.55;42.45;100576.97;5112034;28;20409;-69
2023/09/10 02:51:21;;;;;;;5.03;3.70;;;;;;;26.56;42.41;100578.66;5111898;28;20142;-69
2023/09/10 02:53:49;;;;;;;5.95;4.00;;;;;;;26.53;42.34;100573.56;5111878;28;20086;-69
2023/09/10 02:56:18;;;;;;;5.13;3.60;;;;;;;26.53;42.69;100576.28;5111776;28;20074;-69
2023/09/10 02:58:49;;;;;;;5.47;3.72;;;;;;;26.52;42.51;100569.13;5112008;28;20047;-69
2023/09/10 03:01:18;;;;;;;4.97;3.90;;;;;;;26.51;42.68;100578.38;5111680;28;20489;-69
2023/09/10 03:03:46;;;;;;;5.47;3.53;;;;;;;26.49;42.29;100567.63;5111806;28;20497;-69
2023/09/10 03:06:14;;;;;;;6.22;3.90;;;;;;;26.49;42.34;100569.50;5111692;28;20051;-69
2023/09/10 03:08:44;;;;;;;5.10;3.53;;;;;;;26.46;42.47;100564.44;5111720;28;20051;-69
2023/09/10 03:11:12;;;;;;;5.57;3.55;;;;;;;26.46;42.79;100567.16;5111895;28;20055;-69
2023/09/10 03:13:41;;;;;;;5.07;3.63;;;;;;;26.45;42.66;100570.94;5111777;28;20091;-68
2023/09/10 03:16:09;;;;;;;5.68;3.50;;;;;;;26.43;42.51;100567.50;5111815;28;20043;-69
2023/09/10 03:18:37;;;;;;;5.38;3.42;;;;;;;26.41;42.75;100562.25;5111644;28;20453;-69
2023/09/10 03:21:06;;;;;;;6.10;3.58;;;;;;;26.41;42.83;100564.97;5111581;28;20047;-69
2023/09/10 03:23:34;;;;;;;5.18;3.60;;;;;;;26.41;42.39;100558.66;5111930;28;20086;-69
2023/09/10 03:26:04;;;;;;;5.00;3.70;;;;;;;26.38;42.42;100565.34;5111890;28;20050;-69
2023/09/10 03:28:32;;;;;;;6.18;3.63;;;;;;;26.37;42.72;100563.66;5111759;28;20123;-69
2023/09/10 03:31:01;;;;;;;6.22;3.78;;;;;;;26.36;42.73;100561.09;5111660;28;20093;-70
2023/09/10 03:33:29;;;;;;;6.03;3.58;;;;;;;26.36;42.89;100561.09;5111467;28;20116;-70
2023/09/10 03:35:58;;;;;;;5.80;3.33;;;;;;;26.34;42.66;100565.88;5111695;28;20047;-69
2023/09/10 03:38:26;;;;;;;4.95;3.83;;;;;;;26.33;42.95;100562.28;5111703;28;20151;-68
2023/09/10 03:40:54;;;;;;;6.05;3.75;;;;;;;26.33;42.82;100564.16;5111377;28;20523;-68
2023/09/10 03:43:24;;;;;;;5.35;3.58;;;;;;;26.30;42.57;100556.34;5114601;28;20082;-69
2023/09/10 03:45:53;;;;;;;5.25;3.70;;;;;;;26.30;42.44;100559.09;5115299;28;20485;-70
2023/09/10 03:48:23;;;;;;;4.78;3.42;;;;;;;26.28;42.98;100562.00;5115253;28;20055;-69
2023/09/10 03:50:52;;;;;;;5.28;3.72;;;;;;;26.25;43.26;100552.31;5115224;28;20039;-69
2023/09/10 03:53:20;;;;;;;5.90;3.50;;;;;;;26.27;42.66;100556.75;5115360;28;20123;-68
2023/09/10 03:55:49;;;;;;;5.43;3.60;;;;;;;26.24;42.73;100553.31;5115294;28;20048;-68
2023/09/10 03:58:17;;;;;;;6.32;3.78;;;;;;;26.24;42.68;100558.78;5115134;28;20043;-69
2023/09/10 04:00:47;;;;;;;6.32;4.10;;;;;;;26.22;42.61;100560.88;5114944;28;20485;-69
2023/09/10 04:03:15;;;;;;;5.55;3.58;;;;;;;26.21;43.01;100559.16;5115217;28;20131;-68
2023/09/10 04:05:44;;;;;;;5.03;3.67;;;;;;;26.20;42.84;100562.09;5115338;28;20112;-69
2023/09/10 04:08:12;;;;;;;5.05;3.42;;;;;;;26.20;42.89;100568.41;5115218;28;20112;-69
2023/09/10 04:10:40;;;;;;;5.55;3.70;;;;;;;26.18;42.58;100570.50;5114798;28;20058;-69
2023/09/10 04:13:08;;;;;;;5.93;3.85;;;;;;;26.18;42.62;100566.91;5114986;28;20478;-69
2023/09/10 04:15:37;;;;;;;5.75;3.78;;;;;;;26.16;42.89;100567.09;5114767;28;20048;-69
2023/09/10 04:18:07;;;;;;;5.22;3.70;;;;;;;26.16;42.73;100567.09;5114890;28;20040;-69
2023/09/10 04:20:35;;;;;;;5.90;3.92;;;;;;;26.15;43.04;100564.53;5114806;28;20142;-70
2023/09/10 04:23:04;;;;;;;4.95;3.83;;;;;;;26.13;43.13;100566.59;5114971;28;20075;-69
2023/09/10 04:25:32;;;;;;;5.15;3.67;;;;;;;26.12;43.19;100568.47;5114758;28;20113;-69
2023/09/10 04:28:00;;;;;;;4.82;3.80;;;;;;;26.12;43.14;100573.94;5114564;28;20156;-69
2023/09/10 04:30:28;;;;;;;5.30;3.80;;;;;;;26.11;42.91;100574.13;5115007;28;20100;-69
2023/09/10 04:32:57;;;;;;;5.20;3.63;;;;;;;26.08;43.16;100569.91;5114573;28;20044;-69
2023/09/10 04:35:26;;;;;;;5.63;3.90;;;;;;;26.09;43.22;100577.06;5114368;28;20048;-68
2023/09/10 04:37:55;;;;;;;5.78;3.70;;;;;;;26.07;43.14;100578.28;5114332;28;20479;-69
2023/09/10 04:40:23;;;;;;;5.35;3.90;;;;;;;26.08;43.00;100580.00;5114257;28;20051;-69
2023/09/10 04:42:53;;;;;;;6.18;4.03;;;;;;;26.07;42.90;100581.03;5114187;28;20047;-68
2023/09/10 04:45:21;;;;;;;5.85;3.80;;;;;;;26.06;43.28;100585.66;5114473;28;20044;-69
2023/09/10 04:47:49;;;;;;;5.32;3.65;;;;;;;26.03;43.34;100583.25;5114313;28;20059;-69
2023/09/10 04:50:18;;;;;;;4.93;3.67;;;;;;;26.02;42.97;100581.56;5114185;28;20127;-68
2023/09/10 04:52:53;;;;;;;5.38;3.70;;;;;;;26.02;42.96;100587.03;5114047;28;20492;-69
2023/09/10 04:55:21;;;;;;;5.45;3.72;;;;;;;26.01;43.03;100585.34;5114033;28;20093;-69
2023/09/10 04:57:49;;;;;;;5.10;3.45;;;;;;;26.00;43.14;100586.38;5114026;28;20445;-69
2023/09/10 05:00:18;;;;;;;5.80;4.15;;;;;;;26.00;43.10;100594.56;5114080;28;20054;-69
2023/09/10 05:02:46;;;;;;;5.57;3.65;;;;;;;25.99;42.96;100595.59;5113883;28;20568;-69
2023/09/10 05:05:16;;;;;;;5.70;3.83;;;;;;;25.98;43.07;100596.66;5114026;28;20056;-68
2023/09/10 05:07:48;;;;;;;5.53;3.78;;;;;;;25.97;43.04;100589.47;5113563;28;20478;-68
2023/09/10 05:10:17;;;;;;;5.15;3.80;;;;;;;25.96;43.01;100588.63;5113732;28;20409;-69
2023/09/10 05:12:45;;;;;;;5.50;3.80;;;;;;;25.96;43.11;100594.09;5113746;28;20050;-69
2023/09/10 05:15:13;;;;;;;6.90;3.97;;;;;;;25.95;42.96;100594.25;5113749;28;20054;-68
2023/09/10 05:17:42;;;;;;;5.40;3.78;;;;;;;25.94;43.19;100595.28;5113560;28;20082;-69
2023/09/10 05:20:11;;;;;;;5.47;4.00;;;;;;;25.93;43.15;100599.91;5113497;28;20089;-69
2023/09/10 05:22:39;;;;;;;5.57;3.75;;;;;;;25.93;43.28;100590.88;5113590;28;20043;-68
2023/09/10 05:25:09;;;;;;;4.93;3.72;;;;;;;25.92;43.30;100603.69;5113472;28;20047;-69
2023/09/10 05:27:38;;;;;;;5.32;3.88;;;;;;;25.92;43.30;100600.09;5113349;28;20051;-68
2023/09/10 05:30:08;;;;;;;5.55;3.70;;;;;;;25.91;43.09;100595.66;5113581;28;20104;-69
2023/09/10 05:32:36;;;;;;;5.03;3.47;;;;;;;25.91;43.06;100601.13;5113460;28;20509;-69
2023/09/10 05:35:05;;;;;;;5.20;3.80;;;;;;;25.90;43.51;100603.03;5113247;28;20116;-69
2023/09/10 05:37:33;;;;;;;5.60;3.60;;;;;;;25.89;42.93;100612.25;5113462;28;20071;-68
2023/09/10 05:40:01;;;;;;;5.68;3.97;;;;;;;25.89;43.50;100611.41;5113218;28;20050;-68
2023/09/10 05:42:30;;;;;;;5.68;4.15;;;;;;;25.88;43.05;100612.44;5113233;28;20075;-69
2023/09/10 05:44:59;;;;;;;6.93;3.90;;;;;;;25.88;43.33;100617.91;5112972;28;20044;-69
2023/09/10 05:47:28;;;;;;;5.85;4.03;;;;;;;25.87;43.53;100621.69;5112951;28;20397;-69
2023/09/10 05:49:56;;;;;;;5.20;3.67;;;;;;;25.86;42.97;100619.94;5113149;28;20050;-68
2023/09/10 05:52:24;;;;;;;5.72;3.63;;;;;;;25.85;43.49;100621.84;5113150;28;20052;-69
2023/09/10 05:54:53;;;;;;;5.38;3.70;;;;;;;25.85;43.26;100623.72;5113295;28;20108;-69
2023/09/10 05:57:21;;;;;;;5.35;3.70;;;;;;;25.85;43.43;100626.44;5112890;28;20131;-69
2023/09/10 05:59:50;;;;;;;7.15;4.15;;;;;;;25.85;43.22;100626.44;5112777;28;20058;-70
2023/09/10 06:02:20;;;;;;;5.65;3.75;;;;;;;25.85;43.49;100623.72;5112912;28;20054;-69
2023/09/10 06:04:48;;;;;;;5.65;4.03;;;;;;;25.85;43.17;100629.19;5112572;28;20043;-69
2023/09/10 06:07:17;;;;;;;5.95;3.95;;;;;;;25.83;43.22;100621.16;5112843;28;20050;-69
2023/09/10 06:09:45;;;;;;;5.90;3.85;;;;;;;25.84;43.23;100630.22;5112586;28;20047;-70
2023/09/10 06:12:13;;;;;;;5.40;3.80;;;;;;;25.83;43.42;100620.31;5112408;28;20052;-69
2023/09/10 06:14:42;;;;;;;5.20;3.80;;;;;;;25.82;43.50;100624.09;5112385;28;20201;-69
2023/09/10 06:17:10;;;;;;;6.07;3.72;;;;;;;25.82;43.73;100630.41;5112554;28;20048;-69
2023/09/10 06:19:40;;;;;;;5.18;3.75;;;;;;;25.82;43.37;100624.94;5112477;28;20093;-69
2023/09/10 06:22:09;;;;;;;4.85;3.53;;;;;;;25.82;43.25;100629.56;5112530;28;20228;-69
2023/09/10 06:24:37;;;;;;;6.18;3.65;;;;;;;25.81;43.32;100634.16;5112272;28;20143;-69
2023/09/10 06:27:05;;;;;;;5.30;3.70;;;;;;;25.81;43.55;100636.06;5112330;28;20045;-70
2023/09/10 06:29:33;;;;;;;5.47;3.95;;;;;;;25.81;43.64;100630.59;5112386;28;20157;-69
2023/09/10 06:32:01;;;;;;;5.38;3.50;;;;;;;25.81;43.52;100638.78;5112344;28;20047;-69
2023/09/10 06:34:30;;;;;;;6.03;3.83;;;;;;;25.81;43.49;100638.78;5112480;28;20381;-69
2023/09/10 06:37:00;;;;;;;4.93;3.50;;;;;;;25.79;43.71;100635.41;5112552;28;20043;-69
2023/09/10 06:39:28;;;;;;;4.78;3.45;;;;;;;25.81;43.41;100641.53;5112252;28;20051;-69
2023/09/10 06:41:56;;;;;;;5.18;3.60;;;;;;;25.80;43.71;100637.94;5111901;28;20051;-69
2023/09/10 06:44:25;;;;;;;5.20;3.42;;;;;;;25.80;43.53;100642.56;5112003;28;20148;-68
2023/09/10 06:46:53;;;;;;;5.93;3.75;;;;;;;25.79;43.91;100638.13;5112006;28;20100;-69
2023/09/10 06:49:21;;;;;;;4.88;3.55;;;;;;;25.78;43.70;100633.69;5112009;28;20408;-68
2023/09/10 06:51:49;;;;;;;5.78;3.60;;;;;;;25.78;43.65;100641.91;5111895;28;20048;-69
2023/09/10 06:54:19;;;;;;;6.50;4.10;;;;;;;25.79;43.91;100649.06;5111739;28;20400;-68
2023/09/10 06:56:47;;;;;;;5.00;3.63;;;;;;;25.80;43.84;100653.47;5112138;28;20039;-69
2023/09/10 06:59:16;;;;;;;5.80;3.65;;;;;;;25.79;43.82;100651.78;5111899;28;20043;-68
2023/09/10 07:01:44;;;;;;;5.20;3.90;;;;;;;25.79;43.92;100646.31;5112063;28;20047;-69
2023/09/10 07:04:17;;;;;;;5.75;3.60;;;;;;;25.79;43.76;100649.91;5111597;28;20074;-69
2023/09/10 07:06:46;;;;;;;5.70;3.53;;;;;;;25.78;43.76;100650.09;5111707;28;20044;-69
2023/09/10 07:09:16;;;;;;;5.90;3.78;;;;;;;25.79;44.03;100646.31;5111520;28;20143;-68
2023/09/10 07:11:46;;;;;;;5.57;3.53;;;;;;;25.79;43.53;100655.38;5111496;28;20048;-68
2023/09/10 07:14:14;;;;;;;5.95;3.45;;;;;;;25.80;43.64;100653.47;5111620;28;20055;-68
2023/09/10 07:16:42;;;;;;;5.50;4.00;;;;;;;25.76;43.64;100646.66;5112045;28;20062;-69
2023/09/10 07:19:11;;;;;;;5.35;3.83;;;;;;;25.79;43.70;100651.78;5115771;28;20048;-68
2023/09/10 07:21:39;;;;;;;5.75;3.90;;;;;;;25.79;43.89;100651.78;5116141;28;20075;-68
2023/09/10 07:24:09;;;;;;;5.20;3.70;;;;;;;25.78;44.00;100655.56;5116032;28;20463;-68
2023/09/10 07:26:38;;;;;;;5.60;3.80;;;;;;;25.79;43.93;100652.63;5115658;28;20048;-69
2023/09/10 07:29:08;;;;;;;5.60;3.55;;;;;;;25.78;43.79;100653.66;5115597;28;20047;-68
2023/09/10 07:31:37;;;;;;;4.97;3.47;;;;;;;25.78;43.92;100653.66;5115701;28;20048;-68
2023/09/10 07:34:06;;;;;;;4.70;3.40;;;;;;;25.78;43.80;100655.56;5115409;28;20096;-68
2023/09/10 07:36:35;;;;;;;5.38;3.63;;;;;;;25.79;43.83;100643.59;5115825;28;20139;-68
2023/09/10 07:39:03;;;;;;;5.40;3.55;;;;;;;25.79;44.04;100651.78;5115601;28;20043;-68
2023/09/10 07:41:32;;;;;;;4.97;3.60;;;;;;;25.80;44.21;100653.47;5115534;28;20100;-68
2023/09/10 07:44:02;;;;;;;5.43;3.88;;;;;;;25.80;43.97;100654.34;5115385;28;20052;-69
2023/09/10 07:46:33;;;;;;;5.18;3.50;;;;;;;25.80;43.85;100658.94;5115394;28;20411;-68
2023/09/10 07:49:01;;;;;;;4.95;3.53;;;;;;;25.80;44.00;100648.03;5115183;28;20050;-68
2023/09/10 07:51:29;;;;;;;5.03;3.67;;;;;;;25.80;44.05;100648.03;5115270;28;20401;-68
2023/09/10 07:53:58;;;;;;;5.90;3.70;;;;;;;25.82;44.08;100657.72;5115232;28;20048;-68
2023/09/10 07:56:26;;;;;;;5.22;3.50;;;;;;;25.81;44.24;100656.03;5115255;28;20052;-68
2023/09/10 07:58:54;;;;;;;5.63;3.65;;;;;;;25.81;44.12;100649.72;5115084;28;20086;-68
2023/09/10 08:01:23;;;;;;;5.00;3.90;;;;;;;25.80;44.14;100648.88;5115086;28;20116;-68
2023/09/10 08:03:53;;;;;;;5.05;3.70;;;;;;;25.83;44.05;100653.13;5115231;28;20067;-68
2023/09/10 08:06:21;;;;;;;4.80;3.55;;;;;;;25.82;44.10;100645.94;5115193;28;20071;-68
2023/09/10 08:08:49;;;;;;;5.00;3.65;;;;;;;25.83;43.85;100647.66;5114880;28;20047;-67
2023/09/10 08:11:18;;;;;;;5.43;3.50;;;;;;;25.84;44.09;100643.88;5114257;28;20130;-68
2023/09/10 08:13:46;;;;;;;5.20;3.78;;;;;;;25.85;44.42;100645.56;5113550;28;20489;-68
2023/09/10 08:16:16;;;;;;;5.40;3.65;;;;;;;25.85;44.13;100645.56;5113955;28;20086;-70
2023/09/10 08:18:45;;;;;;;5.10;3.75;;;;;;;25.86;43.96;100641.81;5113735;28;20044;-69
2023/09/10 08:21:15;;;;;;;5.30;3.90;;;;;;;25.84;44.04;100638.41;5113557;28;20126;-68
2023/09/10 08:23:44;;;;;;;5.10;3.60;;;;;;;25.86;44.03;100641.81;5113210;28;20481;-68
2023/09/10 08:26:13;;;;;;;6.15;3.85;;;;;;;25.85;44.34;100640.13;5113379;28;20047;-68
2023/09/10 08:28:41;;;;;;;4.85;3.63;;;;;;;25.87;44.20;100635.34;5112708;28;20138;-69
2023/09/10 08:31:10;;;;;;;5.05;3.50;;;;;;;25.88;44.41;100639.78;5113424;28;20390;-68
2023/09/10 08:33:38;;;;;;;4.82;3.60;;;;;;;25.89;44.62;100639.59;5113517;28;20139;-70
2023/09/10 08:36:06;;;;;;;5.28;3.50;;;;;;;25.90;44.52;100634.97;5113382;28;20502;-69
2023/09/10 08:38:36;;;;;;;5.60;3.70;;;;;;;25.91;44.18;100633.94;5113592;28;20044;-67
2023/09/10 08:41:17;;;;;;;5.18;3.28;;;;;;;25.91;44.03;100631.19;5112881;28;20050;-68
2023/09/10 08:43:52;;;;;;;5.72;3.63;;;;;;;25.91;44.32;100629.31;5113081;28;20079;-68
2023/09/10 08:46:25;;;;;;;5.65;3.50;;;;;;;25.93;44.50;100620.94;5113330;28;20044;-67
2023/09/10 08:48:54;;;;;;;5.75;3.83;;;;;;;25.92;44.48;100620.06;5113144;28;20052;-68
2023/09/10 08:51:22;;;;;;;5.40;3.75;;;;;;;25.96;44.53;100626.00;5094627;28;20485;-67
2023/09/10 08:53:56;;;;;;;4.53;3.35;;;;;;;25.96;44.30;100626.00;5112926;28;20497;-68
2023/09/10 08:56:25;;;;;;;6.15;3.60;;;;;;;25.97;44.66;100611.34;5112886;28;20060;-68
2023/09/10 08:58:55;;;;;;;5.78;3.75;;;;;;;25.97;44.35;100611.34;5112918;28;20131;-68
2023/09/10 09:01:25;;;;;;;6.00;3.85;;;;;;;25.98;44.48;100612.19;5112847;28;20059;-69
2023/09/10 09:03:53;;;;;;;4.88;3.40;;;;;;;25.99;44.54;100603.81;5112713;28;20050;-70
2023/09/10 09:06:24;;;;;;;4.70;3.50;;;;;;;26.01;44.49;100604.47;5112987;28;20043;-69
2023/09/10 09:08:58;;;;;;;4.50;3.38;;;;;;;26.02;44.26;100599.84;5112798;28;20089;-69
2023/09/10 09:11:27;;;;;;;5.13;3.73;;;;;;;26.04;44.54;100606.81;5069354;28;1238556;-69
2023/09/10 09:13:56;;;;;;;4.90;3.60;;;;;;;26.05;44.11;100607.66;5113690;28;20055;-69
2023/09/10 09:16:25;;;;;;;5.45;3.88;;;;;;;26.05;44.48;100602.19;5113459;28;20048;-70
2023/09/10 09:18:54;;;;;;;4.88;3.38;;;;;;;26.06;44.14;100604.78;5113982;28;20044;-69
2023/09/10 09:21:25;;;;;;;5.05;3.65;;;;;;;26.08;44.16;100602.69;5113681;28;20172;-69
2023/09/10 09:23:59;;;;;;;4.78;3.47;;;;;;;26.09;44.20;100596.19;5113254;28;20039;-68
2023/09/10 09:26:29;;;;;;;5.78;3.80;;;;;;;26.10;44.20;100600.63;5113439;28;20040;-68
2023/09/10 09:28:57;;;;;;;4.90;3.40;;;;;;;26.11;44.67;100591.38;5113036;28;20142;-69
2023/09/10 09:31:26;;;;;;;4.60;3.50;;;;;;;26.12;44.20;100590.34;5113234;28;20094;-68
2023/09/10 09:33:54;;;;;;;5.35;3.58;;;;;;;26.14;44.34;100588.28;5113216;28;20075;-69
2023/09/10 09:36:26;;;;;;;5.05;3.50;;;;;;;26.16;44.69;100583.50;5113506;28;20120;-68
2023/09/10 09:38:56;;;;;;;5.05;3.22;;;;;;;26.17;44.22;100590.66;5113162;28;20043;-68
2023/09/10 09:41:25;;;;;;;5.18;3.47;;;;;;;26.19;44.47;100594.06;5112403;28;20062;-68
2023/09/10 09:44:00;;;;;;;4.90;3.45;;;;;;;26.21;44.74;100591.13;5112931;28;20407;-67
2023/09/10 09:46:34;;;;;;;4.57;3.40;;;;;;;26.23;44.46;100583.59;5113246;28;20416;-70
2023/09/10 09:49:03;;;;;;;4.90;3.60;;;;;;;26.23;44.54;100583.59;5113072;28;20058;-69
2023/09/10 09:51:31;;;;;;;4.47;3.30;;;;;;;26.26;44.77;100580.50;5112753;28;20059;-68
2023/09/10 09:54:01;;;;;;;5.28;3.63;;;;;;;26.29;44.26;100576.53;5112872;28;20043;-70
2023/09/10 09:56:30;;;;;;;5.32;3.38;;;;;;;26.30;44.44;100586.44;5113089;28;20047;-68
2023/09/10 09:58:58;;;;;;;5.32;3.40;;;;;;;26.32;44.54;100570.69;5112623;28;20480;-69
2023/09/10 10:01:27;;;;;;;5.22;3.63;;;;;;;26.35;44.38;100581.25;5112762;28;20054;-69
2023/09/10 10:03:57;;;;;;;5.13;3.40;;;;;;;26.37;44.63;100573.72;5112725;28;20054;-69
2023/09/10 10:06:25;;;;;;;5.30;3.85;;;;;;;26.39;44.57;100571.66;5112579;28;20412;-69
2023/09/10 10:08:54;;;;;;;4.63;3.58;;;;;;;26.42;44.71;100571.28;5112456;28;20047;-68
2023/09/10 10:11:30;;;;;;;4.80;3.53;;;;;;;26.44;44.46;100558.28;5112417;28;20059;-68
2023/09/10 10:14:00;;;;;;;4.63;3.25;;;;;;;26.46;44.28;100572.63;5112751;28;20051;-69
2023/09/10 10:16:29;;;;;;;5.57;3.38;;;;;;;26.49;44.70;100555.84;5112651;28;20047;-68
2023/09/10 10:18:58;;;;;;;6.32;3.70;;;;;;;26.52;44.61;100559.03;5112392;28;20075;-68
2023/09/10 10:21:26;;;;;;;5.15;3.70;;;;;;;26.54;44.43;100547.94;5112242;28;20461;-69
2023/09/10 10:23:56;;;;;;;4.70;3.53;;;;;;;26.57;44.74;100543.97;5112544;28;20393;-68
2023/09/10 10:26:25;;;;;;;5.30;3.65;;;;;;;26.59;44.74;100545.47;5112328;28;20469;-69
2023/09/10 10:28:57;;;;;;;4.88;3.45;;;;;;;26.65;44.59;100544.72;5112263;28;20119;-69
2023/09/10 10:31:30;;;;;;;5.28;3.50;;;;;;;26.69;44.42;100548.75;5112076;28;20496;-69
2023/09/10 10:34:04;;;;;;;4.80;3.22;;;;;;;26.72;44.44;100545.63;5112105;28;20459;-68
2023/09/10 10:36:43;;;;;;;4.38;3.13;;;;;;;26.76;44.36;100544.22;5112309;28;20052;-69
2023/09/10 10:39:11;;;;;;;4.70;3.22;;;;;;;26.80;44.66;100545.53;5112140;28;20051;-68
2023/09/10 10:41:45;;;;;;;4.50;3.28;;;;;;;26.82;44.32;100542.59;5112240;28;20043;-69
2023/09/10 10:44:20;;;;;;;4.72;3.40;;;;;;;26.88;44.63;100533.63;5112004;28;20043;-69
2023/09/10 10:46:55;;;;;;;4.50;3.22;;;;;;;26.92;44.26;100545.03;5112285;28;20160;-69
2023/09/10 10:49:24;;;;;;;4.85;3.30;;;;;;;26.95;44.28;100530.97;5111977;28;20048;-69
2023/09/10 10:51:59;;;;;;;4.85;3.45;;;;;;;27.01;44.70;100527.47;5111783;28;20052;-69
2023/09/10 10:54:29;;;;;;;4.65;3.25;;;;;;;27.04;44.36;100527.13;5111942;28;20485;-69
2023/09/10 10:56:58;;;;;;;4.90;3.10;;;;;;;27.08;44.57;100529.28;5111966;28;20085;-69
2023/09/10 10:59:28;;;;;;;4.57;3.38;;;;;;;27.12;44.68;100521.53;5112010;28;20070;-70
2023/09/10 11:02:15;;;;;;;4.80;3.50;;;;;;;27.18;44.69;100517.16;5111968;28;20047;-68
2023/09/10 11:04:56;;;;;;;5.35;3.50;;;;;;;27.22;44.64;100513.84;5111957;28;20416;-69
2023/09/10 11:07:26;;;;;;;5.10;3.55;;;;;;;27.25;44.12;100510.72;5111603;28;20044;-69
2023/09/10 11:09:56;;;;;;;4.50;3.22;;;;;;;27.30;44.27;100510.13;5111853;28;20044;-68
2023/09/10 11:12:25;;;;;;;5.35;3.53;;;;;;;27.35;44.09;100505.78;5111904;28;20188;-69
2023/09/10 11:15:12;;;;;;;4.63;3.35;;;;;;;27.40;44.46;100510.66;5111806;28;20089;-70
2023/09/10 11:17:40;;;;;;;5.22;3.30;;;;;;;27.45;43.91;100505.44;5111590;28;20040;-69
2023/09/10 11:20:09;;;;;;;4.32;2.92;;;;;;;27.49;43.85;100508.63;5111916;28;20051;-70
2023/09/10 11:23:09;;;;;;;4.82;3.05;;;;;;;27.55;43.97;100499.63;5111989;28;20051;-69
2023/09/10 11:25:41;;;;;;;4.20;3.10;;;;;;;27.60;44.38;100505.34;5111683;28;20048;-68
2023/09/10 11:28:40;;;;;;;5.00;3.25;;;;;;;27.65;44.38;100502.88;5111680;28;20054;-68
2023/09/10 11:31:39;;;;;;;4.78;3.30;;;;;;;27.72;44.32;100497.50;5111587;28;20064;-70
2023/09/10 11:34:44;;;;;;;5.00;3.55;;;;;;;27.78;43.95;100503.03;5111651;28;20043;-70
2023/09/10 11:37:12;;;;;;;5.13;3.33;;;;;;;27.82;44.37;100498.00;5111750;28;20044;-69